Terminal Aerodrome Forecast
Issued by NWS Atlanta, GA

Home | Current Version | Previous Version | Text Only | Print | Product List | Glossary On
Versions: 1 2 3 4 5 6 7 8 9 10 11 12 13 14 15 16 17 18 19 20 21 22 23 24 25 26 27 28 29 30 31 32 33 34 35 36 37 38 39 40 41 42
873
FTUS42 KFFC 131506 AAB
TAFMCN
TAF AMD
KMCN 131506Z 1315/1412 02008KT 4SM -SHRA BR OVC008
      TEMPO 1315/1318 1SM RA BR OVC005
     FM140300 03010KT 2SM -SHRA OVC004
     FM140900 29006KT P6SM BKN010 PROB30 1409/1412 4SM -SHRA OVC007=

USA.gov is the U.S. government's official web portal to all federal, state and local government web resources and services.